createdAt,value
2024-04-18T00:00:16.319Z,101689.16
2024-04-18T00:02:49.291Z,101683.47
2024-04-18T00:05:34.067Z,101677.19
2024-04-18T00:08:03.905Z,101693.66
2024-04-18T00:10:31.371Z,101689.34
2024-04-18T00:13:01.234Z,101694.13
2024-04-18T00:15:28.807Z,101699.75
2024-04-18T00:18:02.178Z,101708.16
2024-04-18T00:20:29.483Z,101703.41
2024-04-18T00:23:19.269Z,101721.06
2024-04-18T00:26:06.587Z,101718.63
2024-04-18T00:28:36.519Z,101728.78
2024-04-18T00:31:16.146Z,101734.97
2024-04-18T00:34:03.399Z,101733.84
2024-04-18T00:36:30.896Z,101730.63
2024-04-18T00:39:45.559Z,101732.66
2024-04-18T00:42:12.895Z,101733.84
2024-04-18T00:45:03.016Z,101743.31
2024-04-18T00:47:43.564Z,101750.13
2024-04-18T00:50:17.302Z,101748.94
2024-04-18T00:52:46.199Z,101746.28
2024-04-18T00:55:30.869Z,101758.56
2024-04-18T00:58:11.743Z,101764.94
2024-04-18T01:00:45.415Z,101759.28
2024-04-18T01:03:31.522Z,101771.41
2024-04-18T01:06:13.821Z,101764.88
2024-04-18T01:09:01.800Z,101771.09
2024-04-18T01:11:35.800Z,101788.66
2024-04-18T01:14:09.706Z,101785.75
2024-04-18T01:16:58.130Z,101780.53
2024-04-18T01:19:25.714Z,101782.88
2024-04-18T01:22:02.196Z,101781.19
2024-04-18T01:24:32.252Z,101790.69
2024-04-18T01:27:04.728Z,101787.47
2024-04-18T01:29:47.645Z,101791.69
2024-04-18T01:32:50.375Z,101797.09
2024-04-18T01:35:20.339Z,101790.81
2024-04-18T01:37:50.605Z,101796.09
2024-04-18T01:40:21.618Z,101796.25
2024-04-18T01:43:14.661Z,101802.19
2024-04-18T01:46:03.046Z,101807.28
2024-04-18T01:48:30.420Z,101802.19
2024-04-18T01:51:18.843Z,101801.84
2024-04-18T01:53:46.166Z,101802.72
2024-04-18T01:56:22.327Z,101816.72
2024-04-18T01:58:52.317Z,101814.34
2024-04-18T02:01:28.521Z,101823.47
2024-04-18T02:03:55.886Z,101831.59
2024-04-18T02:06:26.007Z,101841.84
2024-04-18T02:10:09.609Z,101832.25
2024-04-18T02:13:00.021Z,101843.72
2024-04-18T02:15:48.300Z,101846.78
2024-04-18T02:18:43.540Z,101850.16
2024-04-18T02:21:13.614Z,101860.25
2024-04-18T02:23:54.759Z,101863.47
2024-04-18T02:26:21.964Z,101859.91
2024-04-18T02:28:51.823Z,101865.31
2024-04-18T02:31:22.692Z,101863.31
2024-04-18T02:33:56.286Z,101866.00
2024-04-18T02:36:25.532Z,101873.41
2024-04-18T02:38:55.562Z,101877.47
2024-04-18T02:41:22.846Z,101881.13
2024-04-18T02:43:55.219Z,101885.88
2024-04-18T02:46:26.281Z,101885.53
2024-04-18T02:49:14.883Z,101879.13
2024-04-18T02:51:58.252Z,101882.84
2024-04-18T02:54:47.008Z,101892.06
2024-04-18T02:57:14.644Z,101894.44
2024-04-18T02:59:45.166Z,101898.81
2024-04-18T03:02:24.905Z,101905.34
2024-04-18T03:04:54.999Z,101898.09
2024-04-18T03:07:24.229Z,101899.25
2024-04-18T03:09:54.692Z,101900.16
2024-04-18T03:12:28.452Z,101905.53
2024-04-18T03:15:23.410Z,101906.16
2024-04-18T03:18:13.348Z,101914.09
2024-04-18T03:20:43.465Z,101907.03
2024-04-18T03:23:10.833Z,101912.44
2024-04-18T03:25:59.917Z,101919.59
2024-04-18T03:28:27.252Z,101927.63
2024-04-18T03:30:57.060Z,101932.88
2024-04-18T03:33:26.984Z,101937.25
2024-04-18T03:35:56.964Z,101940.50
2024-04-18T03:38:26.846Z,101942.50
2024-04-18T03:41:00.480Z,101940.47
2024-04-18T03:43:30.466Z,101946.69
2024-04-18T03:46:01.325Z,101959.28
2024-04-18T03:48:31.396Z,101955.41
2024-04-18T03:51:01.362Z,101953.03
2024-04-18T03:53:47.514Z,101953.66
2024-04-18T03:56:17.374Z,101967.00
2024-04-18T03:58:44.705Z,101970.34
2024-04-18T04:01:14.829Z,101971.69
2024-04-18T04:03:44.987Z,101974.34
2024-04-18T04:06:16.788Z,101975.03
2024-04-18T04:08:44.169Z,101968.91
2024-04-18T04:11:15.004Z,101969.28
2024-04-18T04:13:42.390Z,101972.81
2024-04-18T04:16:22.172Z,101970.06
2024-04-18T04:19:12.104Z,101978.50
2024-04-18T04:21:51.641Z,101980.38
2024-04-18T04:24:19.168Z,101991.94
2024-04-18T04:26:52.680Z,102001.22
2024-04-18T04:29:20.292Z,102005.91
2024-04-18T04:31:50.213Z,102014.47
2024-04-18T04:34:20.072Z,102023.88
2024-04-18T04:36:49.972Z,102031.56
2024-04-18T04:39:17.305Z,102032.97
2024-04-18T04:41:47.201Z,102031.44
2024-04-18T04:44:14.502Z,102036.25
2024-04-18T04:46:54.875Z,102036.56
2024-04-18T04:49:24.877Z,102040.81
2024-04-18T04:52:04.068Z,102035.28
2024-04-18T04:54:43.318Z,102051.75
2024-04-18T04:57:15.018Z,102051.91
2024-04-18T04:59:42.764Z,102051.69
2024-04-18T05:02:12.623Z,102053.06
2024-04-18T05:04:52.177Z,102057.72
2024-04-18T05:07:36.780Z,102052.84
2024-04-18T05:10:29.565Z,102058.75
2024-04-18T05:12:56.778Z,102060.75
2024-04-18T05:15:38.919Z,102060.59
2024-04-18T05:18:06.757Z,102059.19
2024-04-18T05:20:40.037Z,102060.34
2024-04-18T05:23:08.668Z,102071.50
2024-04-18T05:25:39.588Z,102078.88
2024-04-18T05:28:22.507Z,102080.28
2024-04-18T05:31:06.947Z,102081.50
2024-04-18T05:33:35.455Z,102090.66
2024-04-18T05:36:08.658Z,102089.22
2024-04-18T05:38:38.509Z,102092.34
2024-04-18T05:41:08.443Z,102092.28
2024-04-18T05:43:53.337Z,102098.44
2024-04-18T05:47:35.014Z,102102.66
2024-04-18T05:50:04.700Z,102114.59
2024-04-18T05:52:37.165Z,102118.53
2024-04-18T05:55:23.712Z,102121.78
2024-04-18T05:57:51.051Z,102123.44
2024-04-18T06:05:15.689Z,102136.00
2024-04-18T06:08:07.078Z,102151.69
2024-04-18T06:14:43.734Z,102146.69
2024-04-18T06:17:13.577Z,102148.44
2024-04-18T06:19:53.371Z,102150.69
2024-04-18T06:22:35.619Z,102153.06
2024-04-18T06:25:27.368Z,102157.84
2024-04-18T06:27:57.268Z,102158.78
2024-04-18T06:30:27.222Z,102164.22
2024-04-18T06:32:57.283Z,102160.94
2024-04-18T06:35:27.251Z,102151.16
2024-04-18T06:37:57.121Z,102158.44
2024-04-18T06:40:29.601Z,102171.31
2024-04-18T06:42:59.507Z,102170.34
2024-04-18T06:45:30.036Z,102171.88
2024-04-18T06:48:00.124Z,102168.22
2024-04-18T06:50:30.408Z,102174.22
2024-04-18T06:52:57.606Z,102175.44
2024-04-18T06:55:30.135Z,102167.75
2024-04-18T06:58:00.019Z,102175.63
2024-04-18T07:00:30.690Z,102176.06
2024-04-18T07:03:00.662Z,102179.19
2024-04-18T07:05:56.670Z,102173.81
2024-04-18T07:08:26.956Z,102178.69
2024-04-18T07:11:00.433Z,102178.94
2024-04-18T07:13:33.032Z,102181.41
2024-04-18T07:16:07.687Z,102180.63
2024-04-18T07:18:56.336Z,102185.81
2024-04-18T07:21:26.314Z,102181.66
2024-04-18T07:24:16.159Z,102182.78
2024-04-18T07:26:48.585Z,102187.84
2024-04-18T07:29:18.569Z,102187.13
2024-04-18T07:31:48.528Z,102198.84
2024-04-18T07:34:18.629Z,102198.56
2024-04-18T07:36:50.232Z,102200.97
2024-04-18T07:39:20.956Z,102205.84
2024-04-18T07:41:53.568Z,102200.69
2024-04-18T07:44:25.024Z,102206.16
2024-04-18T07:46:55.135Z,102205.69
2024-04-18T07:49:22.486Z,102199.72
2024-04-18T07:51:53.193Z,102206.81
2024-04-18T07:54:23.255Z,102222.69
2024-04-18T07:56:56.019Z,102215.91
2024-04-18T07:59:26.502Z,102219.53
2024-04-18T08:01:58.244Z,102221.16
2024-04-18T08:04:50.116Z,102222.31
2024-04-18T08:07:22.282Z,102231.22
2024-04-18T08:09:57.243Z,102237.28
2024-04-18T08:12:35.546Z,102235.00
2024-04-18T08:15:14.303Z,102243.69
2024-04-18T08:17:47.450Z,102242.69
2024-04-18T08:20:17.338Z,102252.69
2024-04-18T08:22:47.674Z,102252.34
2024-04-18T08:29:28.180Z,102267.72
2024-04-18T08:31:58.471Z,102263.78
2024-04-18T08:34:29.236Z,102264.22
2024-04-18T08:37:00.529Z,102266.56
2024-04-18T08:39:30.491Z,102260.94
2024-04-18T08:42:00.583Z,102262.50
2024-04-18T08:44:33.204Z,102265.59
2024-04-18T08:47:04.172Z,102263.91
2024-04-18T08:49:34.567Z,102263.50
2024-04-18T08:52:04.648Z,102268.69
2024-04-18T08:54:34.942Z,102268.94
2024-04-18T08:57:08.587Z,102278.16
2024-04-18T08:59:41.362Z,102273.03
2024-04-18T09:06:18.946Z,102275.88
2024-04-18T09:08:48.723Z,102274.91
2024-04-18T09:11:18.696Z,102269.88
2024-04-18T09:13:49.833Z,102257.94
2024-04-18T09:16:22.627Z,102261.25
2024-04-18T09:18:52.641Z,102261.41
2024-04-18T09:21:24.000Z,102250.56
2024-04-18T09:23:54.477Z,102255.19
2024-04-18T09:26:24.359Z,102253.53
2024-04-18T09:28:54.191Z,102260.47
2024-04-18T09:31:37.828Z,102255.72
2024-04-18T09:34:13.320Z,102250.25
2024-04-18T09:36:44.362Z,102250.19
2024-04-18T09:39:19.841Z,102251.06
2024-04-18T09:41:57.905Z,102245.69
2024-04-18T09:44:32.150Z,102238.13
2024-04-18T09:47:05.307Z,102236.19
2024-04-18T09:49:35.904Z,102237.06
2024-04-18T09:52:06.455Z,102241.38
2024-04-18T09:54:36.668Z,102241.28
2024-04-18T09:57:08.075Z,102239.78
2024-04-18T09:59:41.759Z,102244.03
2024-04-18T10:02:16.118Z,102247.34
2024-04-18T10:04:46.930Z,102242.31
2024-04-18T10:07:19.511Z,102251.13
2024-04-18T10:09:51.861Z,102242.31
2024-04-18T10:12:23.150Z,102240.22
2024-04-18T10:14:54.058Z,102244.19
2024-04-18T10:17:33.486Z,102244.44
2024-04-18T10:20:03.430Z,102248.63
2024-04-18T10:22:45.333Z,102241.91
2024-04-18T10:25:22.414Z,102249.00
2024-04-18T10:28:23.747Z,102249.13
2024-04-18T12:48:22.694Z,102135.31
2024-04-18T12:50:55.241Z,102132.25
2024-04-18T12:53:43.921Z,102128.25
2024-04-18T12:56:13.993Z,102131.75
2024-04-18T12:58:47.069Z,102140.34
2024-04-18T13:01:17.393Z,102127.81
2024-04-18T13:03:51.488Z,102129.88
2024-04-18T13:06:41.565Z,102124.56
2024-04-18T13:09:30.006Z,102123.47
2024-04-18T13:12:02.848Z,102118.38
2024-04-18T13:14:52.948Z,102107.75
2024-04-18T13:17:22.984Z,102126.28
2024-04-18T13:19:55.731Z,102119.28
2024-04-18T13:22:22.873Z,102109.41
2024-04-18T13:24:52.836Z,102109.31
2024-04-18T13:27:27.130Z,102111.59
2024-04-18T13:29:57.038Z,102108.91
2024-04-18T13:32:37.887Z,102109.50
2024-04-18T13:35:11.571Z,102096.22
2024-04-18T13:37:41.361Z,102086.81
2024-04-18T13:40:21.330Z,102101.69
2024-04-18T13:43:01.366Z,102090.72
2024-04-18T13:45:35.823Z,102090.59
2024-04-18T13:48:04.020Z,102078.78
2024-04-18T13:50:49.641Z,102076.78
2024-04-18T13:53:19.446Z,102068.41
2024-04-18T13:55:50.773Z,102065.63
2024-04-18T13:58:19.077Z,102059.34
2024-04-18T14:01:03.018Z,102060.50
2024-04-18T14:03:34.481Z,102064.72
2024-04-18T14:06:12.358Z,102046.25
2024-04-18T14:08:40.100Z,102061.66
2024-04-18T14:11:30.023Z,102047.06
2024-04-18T14:14:08.550Z,102040.69
2024-04-18T14:16:54.191Z,102041.97
2024-04-18T14:19:36.146Z,102038.66
2024-04-18T14:22:11.400Z,102033.13
2024-04-18T14:24:41.683Z,102031.84
2024-04-18T14:27:20.112Z,102032.28
2024-04-18T14:34:47.577Z,102021.53
2024-04-18T14:37:20.617Z,102025.25
2024-04-18T14:39:50.519Z,102027.41
2024-04-18T14:42:20.493Z,102018.97
2024-04-18T14:45:40.781Z,102012.34
2024-04-18T14:48:13.188Z,102013.41
2024-04-18T14:50:53.618Z,102004.63
2024-04-18T14:53:46.064Z,102008.72
2024-04-18T14:56:15.860Z,102002.34
2024-04-18T14:59:04.159Z,102016.06
2024-04-18T15:01:34.053Z,102000.47
2024-04-18T15:04:04.113Z,101997.91
2024-04-18T15:06:54.184Z,101998.38
2024-04-18T15:09:44.563Z,101992.97
2024-04-18T15:12:14.768Z,101987.19
2024-04-18T15:14:44.611Z,101992.69
2024-04-18T15:17:16.443Z,101995.75
2024-04-18T15:19:46.267Z,101992.44
2024-04-18T15:22:36.124Z,101989.22
2024-04-18T15:25:27.241Z,101982.19
2024-04-18T15:27:57.018Z,101988.09
2024-04-18T15:30:26.918Z,101985.88
2024-04-18T15:32:56.850Z,101987.09
2024-04-18T15:35:26.748Z,101981.31
2024-04-18T15:38:15.441Z,101986.34
2024-04-18T15:41:07.969Z,101982.03
2024-04-18T15:43:38.538Z,101985.66
2024-04-18T15:46:08.296Z,101978.47
2024-04-18T15:48:38.271Z,101973.59
2024-04-18T15:51:09.646Z,101979.94
2024-04-18T15:53:59.568Z,101969.44
2024-04-18T15:56:31.912Z,101961.56
2024-04-18T15:59:02.633Z,101959.00
2024-04-18T16:01:50.885Z,101961.19
2024-04-18T16:04:39.319Z,101956.25
2024-04-18T16:07:06.461Z,101953.53
2024-04-18T16:09:54.525Z,101953.19
2024-04-18T16:12:27.157Z,101964.97
2024-04-18T16:15:03.375Z,101956.53
2024-04-18T16:17:35.260Z,101951.97
2024-04-18T16:20:14.664Z,101945.25
2024-04-18T16:22:44.792Z,101938.69
2024-04-18T16:25:31.294Z,101940.50
2024-04-18T16:28:04.744Z,101945.25
2024-04-18T16:30:34.608Z,101941.28
2024-04-18T16:33:05.010Z,101941.78
2024-04-18T16:35:35.026Z,101931.41
2024-04-18T16:38:14.172Z,101932.91
2024-04-18T16:40:53.197Z,101934.03
2024-04-18T16:43:37.985Z,101926.06
2024-04-18T16:46:09.200Z,101931.75
2024-04-18T16:48:40.247Z,101921.53
2024-04-18T16:51:10.234Z,101923.00
2024-04-18T16:53:59.296Z,101927.75
2024-04-18T16:56:41.030Z,101933.50
2024-04-18T16:59:14.223Z,101928.56
2024-04-18T17:01:44.036Z,101924.59
2024-04-18T17:04:14.062Z,101924.22
2024-04-18T17:07:03.962Z,101923.53
2024-04-18T17:09:53.798Z,101918.16
2024-04-18T17:12:23.861Z,101909.13
2024-04-18T17:15:15.344Z,101905.94
2024-04-18T17:17:45.322Z,101914.56
2024-04-18T17:20:27.652Z,101903.53
2024-04-18T17:22:57.480Z,101904.28
2024-04-18T17:25:29.121Z,101909.00
2024-04-18T17:27:58.906Z,101909.50
2024-04-18T17:30:31.387Z,101910.53
2024-04-18T17:33:26.828Z,101911.97
2024-04-18T17:36:04.432Z,101902.13
2024-04-18T17:38:51.920Z,101891.38
2024-04-18T17:41:30.987Z,101887.78
2024-04-18T17:44:19.322Z,101887.84
2024-04-18T17:47:03.357Z,101892.22
2024-04-18T17:49:33.506Z,101892.22
2024-04-18T17:52:03.387Z,101881.75
2024-04-18T17:54:33.309Z,101887.44
2024-04-18T17:57:04.244Z,101886.38
2024-04-18T17:59:33.933Z,101882.00
2024-04-18T18:02:07.520Z,101881.41
2024-04-18T18:04:59.623Z,101879.56
2024-04-18T18:07:29.692Z,101893.91
2024-04-18T18:09:59.562Z,101886.09
2024-04-18T18:12:29.332Z,101895.16
2024-04-18T18:14:59.856Z,101878.63
2024-04-18T18:17:35.905Z,101888.72
2024-04-18T18:20:06.533Z,101898.22
2024-04-18T18:22:50.363Z,101903.84
2024-04-18T18:25:20.237Z,101912.47
2024-04-18T18:27:47.540Z,101908.88
2024-04-18T18:30:32.395Z,101923.38
2024-04-18T18:33:20.913Z,101924.81
2024-04-18T18:35:50.962Z,101932.34
2024-04-18T18:38:18.623Z,101951.59
2024-04-18T18:40:48.630Z,101926.44
2024-04-18T18:43:24.897Z,101920.19
2024-04-18T18:45:55.096Z,101914.28
2024-04-18T18:48:25.171Z,101920.16
2024-04-18T18:51:09.042Z,101919.25
2024-04-18T18:53:36.363Z,101915.50
2024-04-18T18:56:06.984Z,101925.22
2024-04-18T18:59:12.986Z,101915.03
2024-04-18T19:01:42.998Z,101915.69
2024-04-18T19:04:29.041Z,101918.09
2024-04-18T19:06:56.518Z,101914.09
2024-04-18T19:09:26.429Z,101936.50
2024-04-18T19:11:56.328Z,101933.78
2024-04-18T19:14:23.639Z,101933.84
2024-04-18T19:17:09.159Z,101927.16
2024-04-18T19:19:39.130Z,101910.34
2024-04-18T19:22:08.998Z,101916.84
2024-04-18T19:24:39.464Z,101907.22
2024-04-18T19:27:09.339Z,101906.41
2024-04-18T19:29:44.756Z,101911.69
2024-04-18T19:32:18.607Z,101910.84
2024-04-18T19:34:48.579Z,101899.09
2024-04-18T19:37:18.560Z,101900.84
2024-04-18T19:39:45.853Z,101897.91
2024-04-18T19:42:17.710Z,101900.03
2024-04-18T19:44:45.044Z,101900.19
2024-04-18T19:47:14.890Z,101884.88
2024-04-18T19:49:42.131Z,101883.25
2024-04-18T19:52:14.578Z,101878.03
2024-04-18T19:54:41.887Z,101878.25
2024-04-18T19:57:11.809Z,101871.13
2024-04-18T19:59:39.342Z,101873.19
2024-04-18T20:02:09.678Z,101873.44
2024-04-18T20:04:37.008Z,101874.09
2024-04-18T20:07:07.190Z,101863.44
2024-04-18T20:09:37.219Z,101876.16
2024-04-18T20:12:08.257Z,101863.03
2024-04-18T20:14:38.292Z,101869.06
2024-04-18T20:17:05.870Z,101878.34
2024-04-18T20:19:35.835Z,101883.91
2024-04-18T20:22:03.338Z,101876.94
2024-04-18T20:24:35.670Z,101882.00
2024-04-18T20:27:26.487Z,101888.66
2024-04-18T20:29:57.107Z,101883.63
2024-04-18T20:32:25.567Z,101875.63
2024-04-18T20:34:56.468Z,101869.78
2024-04-18T20:37:24.533Z,101870.94
2024-04-18T20:39:57.624Z,101875.13
2024-04-18T20:42:56.995Z,101882.38
2024-04-18T20:45:24.155Z,101876.06
2024-04-18T20:47:55.233Z,101870.56
2024-04-18T20:50:22.625Z,101868.31
2024-04-18T20:52:52.482Z,101864.00
2024-04-18T20:55:19.698Z,101871.56
2024-04-18T20:57:49.486Z,101858.78
2024-04-18T21:00:29.024Z,101856.38
2024-04-18T21:03:00.591Z,101857.97
2024-04-18T21:05:27.936Z,101861.97
2024-04-18T21:07:57.765Z,101849.13
2024-04-18T21:10:24.955Z,101851.84
2024-04-18T21:12:54.772Z,101846.03
2024-04-18T21:15:24.585Z,101855.25
2024-04-18T21:17:55.276Z,101854.06
2024-04-18T21:20:22.643Z,101851.09
2024-04-18T21:22:54.799Z,101835.72
2024-04-18T21:25:22.189Z,101838.28
2024-04-18T21:28:17.594Z,101825.88
2024-04-18T21:30:47.552Z,101833.38
2024-04-18T21:33:17.617Z,101833.38
2024-04-18T21:35:46.882Z,101836.75
2024-04-18T21:38:46.599Z,101829.81
2024-04-18T21:41:21.876Z,101834.72
2024-04-18T21:43:51.713Z,101835.84
2024-04-18T21:46:27.869Z,101824.16
2024-04-18T21:48:57.877Z,101830.34
2024-04-18T21:51:25.453Z,101829.50
2024-04-18T21:53:55.442Z,101828.00
2024-04-18T21:56:22.784Z,101825.94
2024-04-18T21:58:55.058Z,101840.81
2024-04-18T22:01:43.477Z,101831.84
2024-04-18T22:04:14.218Z,101822.41
2024-04-18T22:06:41.785Z,101817.66
2024-04-18T22:09:12.136Z,101813.06
2024-04-18T22:11:41.223Z,101806.59
2024-04-18T22:14:11.366Z,101802.03
2024-04-18T22:16:38.594Z,101812.41
2024-04-18T22:19:11.288Z,101805.28
2024-04-18T22:21:39.735Z,101806.69
2024-04-18T22:24:10.708Z,101804.28
2024-04-18T22:26:38.095Z,101802.94
2024-04-18T22:29:07.947Z,101793.53
2024-04-18T22:31:35.256Z,101782.03
2024-04-18T22:34:05.245Z,101777.94
2024-04-18T22:36:37.920Z,101772.78
2024-04-18T22:39:05.789Z,101765.22
2024-04-18T22:41:35.688Z,101769.31
2024-04-18T22:44:03.045Z,101763.72
2024-04-18T22:47:23.464Z,101766.06
2024-04-18T22:50:44.418Z,101746.53
2024-04-18T22:53:14.458Z,101746.00
2024-04-18T22:55:44.351Z,101745.44
2024-04-18T22:58:13.537Z,101736.00
2024-04-18T23:00:44.356Z,101738.13
2024-04-18T23:03:11.766Z,101737.94
2024-04-18T23:05:41.673Z,101732.34
2024-04-18T23:08:09.090Z,101732.88
2024-04-18T23:10:42.257Z,101720.28
2024-04-18T23:13:09.573Z,101717.50
2024-04-18T23:15:48.649Z,101710.13
2024-04-18T23:18:18.627Z,101713.66
2024-04-18T23:20:46.478Z,101720.97
2024-04-18T23:23:17.051Z,101713.00
2024-04-18T23:25:47.683Z,101709.19
2024-04-18T23:28:17.657Z,101699.00
2024-04-18T23:30:45.764Z,101698.34
2024-04-18T23:33:16.436Z,101696.94
2024-04-18T23:35:44.189Z,101694.59
2024-04-18T23:38:14.395Z,101696.69
2024-04-18T23:40:42.169Z,101695.28
2024-04-18T23:43:14.781Z,101683.41
2024-04-18T23:45:42.495Z,101692.84
2024-04-18T23:48:14.895Z,101682.69
2024-04-18T23:50:42.884Z,101665.19
2024-04-18T23:53:12.894Z,101663.59
2024-04-18T23:55:41.083Z,101664.56
2024-04-18T23:58:11.013Z,101668.47
